sensor_id;sensor_type;location;lat;lon;timestamp;P1;durP1;ratioP1;P2;durP2;ratioP2
29814;SDS011;16708;50.426;7.664;2023-07-29T00:02:19;4.10;;;2.10;;
29814;SDS011;16708;50.426;7.664;2023-07-29T00:07:14;2.60;;;2.10;;
29814;SDS011;16708;50.426;7.664;2023-07-29T00:12:09;2.70;;;2.20;;
29814;SDS011;16708;50.426;7.664;2023-07-29T00:17:04;5.20;;;2.00;;
29814;SDS011;16708;50.426;7.664;2023-07-29T00:21:58;3.00;;;1.90;;
29814;SDS011;16708;50.426;7.664;2023-07-29T00:26:53;4.40;;;2.00;;
29814;SDS011;16708;50.426;7.664;2023-07-29T00:31:48;2.90;;;2.10;;
29814;SDS011;16708;50.426;7.664;2023-07-29T00:36:42;5.30;;;2.10;;
29814;SDS011;16708;50.426;7.664;2023-07-29T00:41:37;3.20;;;2.20;;
29814;SDS011;16708;50.426;7.664;2023-07-29T00:46:31;3.50;;;2.30;;
29814;SDS011;16708;50.426;7.664;2023-07-29T00:51:25;4.30;;;2.10;;
29814;SDS011;16708;50.426;7.664;2023-07-29T00:56:20;2.20;;;2.00;;
29814;SDS011;16708;50.426;7.664;2023-07-29T01:06:00;5.40;;;2.40;;
29814;SDS011;16708;50.426;7.664;2023-07-29T01:10:54;4.50;;;2.30;;
29814;SDS011;16708;50.426;7.664;2023-07-29T01:15:46;4.10;;;2.80;;
29814;SDS011;16708;50.426;7.664;2023-07-29T01:20:40;3.20;;;2.30;;
29814;SDS011;16708;50.426;7.664;2023-07-29T01:25:35;4.40;;;2.80;;
29814;SDS011;16708;50.426;7.664;2023-07-29T01:30:29;4.30;;;2.50;;
29814;SDS011;16708;50.426;7.664;2023-07-29T01:35:23;3.60;;;2.60;;
29814;SDS011;16708;50.426;7.664;2023-07-29T01:40:18;5.50;;;2.90;;
29814;SDS011;16708;50.426;7.664;2023-07-29T01:45:12;2.70;;;2.40;;
29814;SDS011;16708;50.426;7.664;2023-07-29T01:50:06;4.90;;;2.90;;
29814;SDS011;16708;50.426;7.664;2023-07-29T01:54:59;4.00;;;2.70;;
29814;SDS011;16708;50.426;7.664;2023-07-29T01:59:54;3.90;;;2.90;;
29814;SDS011;16708;50.426;7.664;2023-07-29T02:04:47;5.50;;;3.00;;
29814;SDS011;16708;50.426;7.664;2023-07-29T02:09:41;4.70;;;3.10;;
29814;SDS011;16708;50.426;7.664;2023-07-29T02:14:36;4.20;;;3.00;;
29814;SDS011;16708;50.426;7.664;2023-07-29T02:19:30;3.90;;;3.10;;
29814;SDS011;16708;50.426;7.664;2023-07-29T02:24:25;4.90;;;3.00;;
29814;SDS011;16708;50.426;7.664;2023-07-29T02:29:20;4.50;;;3.00;;
29814;SDS011;16708;50.426;7.664;2023-07-29T02:34:13;6.10;;;3.40;;
29814;SDS011;16708;50.426;7.664;2023-07-29T02:39:07;4.00;;;3.20;;
29814;SDS011;16708;50.426;7.664;2023-07-29T02:44:01;4.40;;;3.50;;
29814;SDS011;16708;50.426;7.664;2023-07-29T02:48:55;4.70;;;3.20;;
29814;SDS011;16708;50.426;7.664;2023-07-29T02:53:50;5.80;;;3.80;;
29814;SDS011;16708;50.426;7.664;2023-07-29T02:58:44;5.70;;;3.80;;
29814;SDS011;16708;50.426;7.664;2023-07-29T03:03:39;5.50;;;4.00;;
29814;SDS011;16708;50.426;7.664;2023-07-29T03:08:33;4.50;;;3.80;;
29814;SDS011;16708;50.426;7.664;2023-07-29T03:13:28;6.00;;;3.60;;
29814;SDS011;16708;50.426;7.664;2023-07-29T03:18:22;6.70;;;3.40;;
29814;SDS011;16708;50.426;7.664;2023-07-29T03:23:16;6.90;;;3.40;;
29814;SDS011;16708;50.426;7.664;2023-07-29T03:28:11;8.10;;;3.60;;
29814;SDS011;16708;50.426;7.664;2023-07-29T03:33:05;4.80;;;3.60;;
29814;SDS011;16708;50.426;7.664;2023-07-29T03:37:59;5.60;;;4.10;;
29814;SDS011;16708;50.426;7.664;2023-07-29T03:42:54;6.60;;;4.40;;
29814;SDS011;16708;50.426;7.664;2023-07-29T03:47:48;7.20;;;4.10;;
29814;SDS011;16708;50.426;7.664;2023-07-29T03:52:40;6.70;;;4.20;;
29814;SDS011;16708;50.426;7.664;2023-07-29T03:57:34;6.20;;;4.30;;
29814;SDS011;16708;50.426;7.664;2023-07-29T04:02:26;8.60;;;4.20;;
29814;SDS011;16708;50.426;7.664;2023-07-29T04:07:21;6.70;;;4.40;;
29814;SDS011;16708;50.426;7.664;2023-07-29T04:12:15;7.50;;;4.50;;
29814;SDS011;16708;50.426;7.664;2023-07-29T04:17:09;7.30;;;4.40;;
29814;SDS011;16708;50.426;7.664;2023-07-29T04:22:03;13.00;;;4.90;;
29814;SDS011;16708;50.426;7.664;2023-07-29T04:26:58;8.10;;;4.90;;
29814;SDS011;16708;50.426;7.664;2023-07-29T04:31:52;5.60;;;4.70;;
29814;SDS011;16708;50.426;7.664;2023-07-29T04:36:46;7.30;;;4.90;;
29814;SDS011;16708;50.426;7.664;2023-07-29T04:41:41;7.50;;;4.50;;
29814;SDS011;16708;50.426;7.664;2023-07-29T04:46:35;5.60;;;4.00;;
29814;SDS011;16708;50.426;7.664;2023-07-29T04:51:29;6.80;;;3.60;;
29814;SDS011;16708;50.426;7.664;2023-07-29T04:56:23;4.40;;;3.60;;
29814;SDS011;16708;50.426;7.664;2023-07-29T05:01:18;4.00;;;3.10;;
29814;SDS011;16708;50.426;7.664;2023-07-29T05:06:12;3.70;;;2.80;;
29814;SDS011;16708;50.426;7.664;2023-07-29T05:11:07;6.90;;;2.70;;
29814;SDS011;16708;50.426;7.664;2023-07-29T05:16:02;4.60;;;2.80;;
29814;SDS011;16708;50.426;7.664;2023-07-29T05:20:56;5.20;;;3.00;;
29814;SDS011;16708;50.426;7.664;2023-07-29T05:25:50;5.00;;;2.80;;
29814;SDS011;16708;50.426;7.664;2023-07-29T05:30:43;6.00;;;3.10;;
29814;SDS011;16708;50.426;7.664;2023-07-29T05:35:37;5.30;;;3.20;;
29814;SDS011;16708;50.426;7.664;2023-07-29T05:40:31;7.10;;;3.90;;
29814;SDS011;16708;50.426;7.664;2023-07-29T05:45:23;5.90;;;3.90;;
29814;SDS011;16708;50.426;7.664;2023-07-29T05:50:18;7.60;;;4.50;;
29814;SDS011;16708;50.426;7.664;2023-07-29T05:55:12;5.90;;;4.20;;
29814;SDS011;16708;50.426;7.664;2023-07-29T06:00:06;8.00;;;4.60;;
29814;SDS011;16708;50.426;7.664;2023-07-29T06:05:00;8.20;;;4.40;;
29814;SDS011;16708;50.426;7.664;2023-07-29T06:09:55;6.10;;;4.30;;
29814;SDS011;16708;50.426;7.664;2023-07-29T06:14:49;6.50;;;4.00;;
29814;SDS011;16708;50.426;7.664;2023-07-29T06:19:43;6.80;;;3.90;;
29814;SDS011;16708;50.426;7.664;2023-07-29T06:24:38;9.50;;;4.60;;
29814;SDS011;16708;50.426;7.664;2023-07-29T06:29:32;8.00;;;4.10;;
29814;SDS011;16708;50.426;7.664;2023-07-29T06:34:26;7.00;;;4.10;;
29814;SDS011;16708;50.426;7.664;2023-07-29T06:39:21;4.90;;;3.80;;
29814;SDS011;16708;50.426;7.664;2023-07-29T06:44:15;5.70;;;3.60;;
29814;SDS011;16708;50.426;7.664;2023-07-29T06:49:09;5.70;;;3.30;;
29814;SDS011;16708;50.426;7.664;2023-07-29T06:54:04;5.90;;;2.90;;
29814;SDS011;16708;50.426;7.664;2023-07-29T06:58:59;4.20;;;2.70;;
29814;SDS011;16708;50.426;7.664;2023-07-29T07:03:53;4.80;;;2.80;;
29814;SDS011;16708;50.426;7.664;2023-07-29T07:08:47;6.10;;;2.90;;
29814;SDS011;16708;50.426;7.664;2023-07-29T07:13:42;5.10;;;3.20;;
29814;SDS011;16708;50.426;7.664;2023-07-29T07:18:37;5.20;;;3.10;;
29814;SDS011;16708;50.426;7.664;2023-07-29T07:23:31;4.70;;;2.60;;
29814;SDS011;16708;50.426;7.664;2023-07-29T07:28:26;2.50;;;1.90;;
29814;SDS011;16708;50.426;7.664;2023-07-29T07:33:20;2.50;;;1.80;;
29814;SDS011;16708;50.426;7.664;2023-07-29T07:38:15;3.10;;;1.90;;
29814;SDS011;16708;50.426;7.664;2023-07-29T07:43:08;4.10;;;2.00;;
29814;SDS011;16708;50.426;7.664;2023-07-29T07:48:03;5.00;;;2.10;;
29814;SDS011;16708;50.426;7.664;2023-07-29T07:52:58;3.40;;;1.80;;
29814;SDS011;16708;50.426;7.664;2023-07-29T07:57:52;1.60;;;1.30;;
29814;SDS011;16708;50.426;7.664;2023-07-29T08:02:46;3.20;;;1.80;;
29814;SDS011;16708;50.426;7.664;2023-07-29T08:07:40;3.60;;;1.70;;
29814;SDS011;16708;50.426;7.664;2023-07-29T08:12:35;4.40;;;1.40;;
29814;SDS011;16708;50.426;7.664;2023-07-29T08:17:29;2.60;;;1.30;;
29814;SDS011;16708;50.426;7.664;2023-07-29T08:22:24;3.10;;;1.30;;
29814;SDS011;16708;50.426;7.664;2023-07-29T08:27:16;2.60;;;1.70;;
29814;SDS011;16708;50.426;7.664;2023-07-29T08:32:10;3.60;;;1.40;;
29814;SDS011;16708;50.426;7.664;2023-07-29T08:37:05;2.20;;;1.10;;
29814;SDS011;16708;50.426;7.664;2023-07-29T08:42:00;2.10;;;1.20;;
29814;SDS011;16708;50.426;7.664;2023-07-29T08:46:54;2.70;;;1.20;;
29814;SDS011;16708;50.426;7.664;2023-07-29T08:51:49;2.00;;;1.20;;
29814;SDS011;16708;50.426;7.664;2023-07-29T08:56:44;3.30;;;1.10;;
29814;SDS011;16708;50.426;7.664;2023-07-29T09:01:38;4.40;;;1.20;;
29814;SDS011;16708;50.426;7.664;2023-07-29T09:06:32;2.30;;;1.20;;
29814;SDS011;16708;50.426;7.664;2023-07-29T09:11:26;2.40;;;1.10;;
29814;SDS011;16708;50.426;7.664;2023-07-29T09:16:20;2.60;;;1.20;;
29814;SDS011;16708;50.426;7.664;2023-07-29T09:21:13;3.20;;;1.50;;
29814;SDS011;16708;50.426;7.664;2023-07-29T09:26:07;4.50;;;1.50;;
29814;SDS011;16708;50.426;7.664;2023-07-29T09:31:01;5.80;;;2.00;;
29814;SDS011;16708;50.426;7.664;2023-07-29T09:35:55;4.50;;;2.00;;
29814;SDS011;16708;50.426;7.664;2023-07-29T09:40:48;5.70;;;2.30;;
29814;SDS011;16708;50.426;7.664;2023-07-29T09:45:42;6.00;;;2.60;;
29814;SDS011;16708;50.426;7.664;2023-07-29T09:50:37;4.00;;;2.60;;
29814;SDS011;16708;50.426;7.664;2023-07-29T09:55:31;3.20;;;2.10;;
29814;SDS011;16708;50.426;7.664;2023-07-29T10:00:26;3.80;;;1.90;;
29814;SDS011;16708;50.426;7.664;2023-07-29T10:05:21;3.40;;;1.70;;
29814;SDS011;16708;50.426;7.664;2023-07-29T10:10:15;5.00;;;2.20;;
29814;SDS011;16708;50.426;7.664;2023-07-29T10:15:09;3.80;;;1.90;;
29814;SDS011;16708;50.426;7.664;2023-07-29T10:20:03;3.30;;;1.70;;
29814;SDS011;16708;50.426;7.664;2023-07-29T10:24:58;3.40;;;1.90;;
29814;SDS011;16708;50.426;7.664;2023-07-29T10:29:53;3.80;;;1.70;;
29814;SDS011;16708;50.426;7.664;2023-07-29T10:34:47;3.90;;;1.60;;
29814;SDS011;16708;50.426;7.664;2023-07-29T10:39:42;1.50;;;1.30;;
29814;SDS011;16708;50.426;7.664;2023-07-29T10:49:31;6.20;;;1.70;;
29814;SDS011;16708;50.426;7.664;2023-07-29T10:54:26;3.20;;;1.40;;
29814;SDS011;16708;50.426;7.664;2023-07-29T10:59:22;3.60;;;1.50;;
29814;SDS011;16708;50.426;7.664;2023-07-29T11:09:10;3.90;;;1.50;;
29814;SDS011;16708;50.426;7.664;2023-07-29T11:14:06;5.00;;;1.60;;
29814;SDS011;16708;50.426;7.664;2023-07-29T11:19:00;3.80;;;1.60;;
29814;SDS011;16708;50.426;7.664;2023-07-29T11:23:55;2.90;;;1.60;;
29814;SDS011;16708;50.426;7.664;2023-07-29T11:28:51;4.60;;;1.90;;
29814;SDS011;16708;50.426;7.664;2023-07-29T11:33:43;1.80;;;1.70;;
29814;SDS011;16708;50.426;7.664;2023-07-29T11:38:36;2.80;;;1.50;;
29814;SDS011;16708;50.426;7.664;2023-07-29T11:43:29;2.60;;;1.70;;
29814;SDS011;16708;50.426;7.664;2023-07-29T11:48:23;2.10;;;1.50;;
29814;SDS011;16708;50.426;7.664;2023-07-29T11:53:17;3.00;;;1.80;;
29814;SDS011;16708;50.426;7.664;2023-07-29T11:58:13;2.90;;;1.70;;
29814;SDS011;16708;50.426;7.664;2023-07-29T12:03:10;2.70;;;1.70;;
29814;SDS011;16708;50.426;7.664;2023-07-29T12:08:04;2.80;;;1.80;;
29814;SDS011;16708;50.426;7.664;2023-07-29T12:12:58;2.10;;;1.70;;
29814;SDS011;16708;50.426;7.664;2023-07-29T12:17:51;3.00;;;1.80;;
29814;SDS011;16708;50.426;7.664;2023-07-29T12:22:44;2.50;;;1.70;;
29814;SDS011;16708;50.426;7.664;2023-07-29T12:27:38;2.20;;;1.50;;
29814;SDS011;16708;50.426;7.664;2023-07-29T12:32:32;2.70;;;1.60;;
29814;SDS011;16708;50.426;7.664;2023-07-29T12:37:25;2.10;;;1.60;;
29814;SDS011;16708;50.426;7.664;2023-07-29T12:42:19;6.00;;;1.70;;
29814;SDS011;16708;50.426;7.664;2023-07-29T12:47:13;2.90;;;1.80;;
29814;SDS011;16708;50.426;7.664;2023-07-29T12:52:06;3.50;;;1.70;;
29814;SDS011;16708;50.426;7.664;2023-07-29T12:57:00;1.90;;;1.50;;
29814;SDS011;16708;50.426;7.664;2023-07-29T13:01:54;6.50;;;4.70;;
29814;SDS011;16708;50.426;7.664;2023-07-29T13:06:49;1.90;;;1.60;;
29814;SDS011;16708;50.426;7.664;2023-07-29T13:11:45;4.00;;;1.80;;
29814;SDS011;16708;50.426;7.664;2023-07-29T13:16:40;1.70;;;1.50;;
29814;SDS011;16708;50.426;7.664;2023-07-29T13:21:32;2.90;;;1.30;;
29814;SDS011;16708;50.426;7.664;2023-07-29T13:26:26;1.80;;;1.50;;
29814;SDS011;16708;50.426;7.664;2023-07-29T13:31:20;1.60;;;1.40;;
29814;SDS011;16708;50.426;7.664;2023-07-29T13:36:15;2.80;;;1.70;;
29814;SDS011;16708;50.426;7.664;2023-07-29T13:41:07;2.30;;;1.60;;
29814;SDS011;16708;50.426;7.664;2023-07-29T13:46:01;2.50;;;1.50;;
29814;SDS011;16708;50.426;7.664;2023-07-29T13:50:55;2.50;;;1.60;;
29814;SDS011;16708;50.426;7.664;2023-07-29T13:55:48;6.80;;;2.30;;
29814;SDS011;16708;50.426;7.664;2023-07-29T14:00:43;4.10;;;1.90;;
29814;SDS011;16708;50.426;7.664;2023-07-29T14:05:37;5.50;;;1.90;;
29814;SDS011;16708;50.426;7.664;2023-07-29T14:10:31;2.40;;;1.70;;
29814;SDS011;16708;50.426;7.664;2023-07-29T14:15:25;3.40;;;1.70;;
29814;SDS011;16708;50.426;7.664;2023-07-29T14:20:18;5.10;;;2.20;;
29814;SDS011;16708;50.426;7.664;2023-07-29T14:25:13;2.90;;;1.90;;
29814;SDS011;16708;50.426;7.664;2023-07-29T14:30:08;3.50;;;1.90;;
29814;SDS011;16708;50.426;7.664;2023-07-29T14:35:04;2.40;;;1.80;;
29814;SDS011;16708;50.426;7.664;2023-07-29T14:40:01;3.60;;;1.60;;
29814;SDS011;16708;50.426;7.664;2023-07-29T14:44:56;2.70;;;1.90;;
29814;SDS011;16708;50.426;7.664;2023-07-29T14:49:51;3.30;;;1.60;;
29814;SDS011;16708;50.426;7.664;2023-07-29T14:54:45;2.30;;;2.00;;
29814;SDS011;16708;50.426;7.664;2023-07-29T14:59:40;3.00;;;1.80;;
29814;SDS011;16708;50.426;7.664;2023-07-29T15:04:34;3.50;;;1.70;;
29814;SDS011;16708;50.426;7.664;2023-07-29T15:09:28;3.80;;;1.70;;
29814;SDS011;16708;50.426;7.664;2023-07-29T15:14:21;2.30;;;1.40;;
29814;SDS011;16708;50.426;7.664;2023-07-29T15:19:15;3.70;;;1.70;;
29814;SDS011;16708;50.426;7.664;2023-07-29T15:24:08;4.00;;;1.40;;
29814;SDS011;16708;50.426;7.664;2023-07-29T15:29:02;4.10;;;1.30;;
29814;SDS011;16708;50.426;7.664;2023-07-29T15:33:56;2.40;;;1.20;;
29814;SDS011;16708;50.426;7.664;2023-07-29T15:38:49;3.70;;;1.10;;
29814;SDS011;16708;50.426;7.664;2023-07-29T15:43:44;1.90;;;1.10;;
29814;SDS011;16708;50.426;7.664;2023-07-29T15:48:39;2.90;;;1.20;;
29814;SDS011;16708;50.426;7.664;2023-07-29T15:53:32;2.60;;;1.20;;
29814;SDS011;16708;50.426;7.664;2023-07-29T15:58:24;1.80;;;1.40;;
29814;SDS011;16708;50.426;7.664;2023-07-29T16:03:18;2.20;;;1.40;;
29814;SDS011;16708;50.426;7.664;2023-07-29T16:08:13;3.20;;;2.10;;
29814;SDS011;16708;50.426;7.664;2023-07-29T16:13:09;4.00;;;2.20;;
29814;SDS011;16708;50.426;7.664;2023-07-29T16:18:03;4.60;;;1.80;;
29814;SDS011;16708;50.426;7.664;2023-07-29T16:22:57;3.60;;;1.20;;
29814;SDS011;16708;50.426;7.664;2023-07-29T16:27:51;2.10;;;1.40;;
29814;SDS011;16708;50.426;7.664;2023-07-29T16:32:46;2.40;;;1.20;;
29814;SDS011;16708;50.426;7.664;2023-07-29T16:37:39;2.00;;;1.40;;
29814;SDS011;16708;50.426;7.664;2023-07-29T16:42:33;1.90;;;1.20;;
29814;SDS011;16708;50.426;7.664;2023-07-29T16:47:27;2.10;;;1.50;;
29814;SDS011;16708;50.426;7.664;2023-07-29T16:52:21;2.90;;;1.50;;
29814;SDS011;16708;50.426;7.664;2023-07-29T16:57:15;3.20;;;1.40;;
29814;SDS011;16708;50.426;7.664;2023-07-29T17:02:07;1.70;;;1.20;;
29814;SDS011;16708;50.426;7.664;2023-07-29T17:07:02;2.70;;;1.70;;
29814;SDS011;16708;50.426;7.664;2023-07-29T17:11:56;3.50;;;1.60;;
29814;SDS011;16708;50.426;7.664;2023-07-29T17:16:51;2.20;;;1.40;;
29814;SDS011;16708;50.426;7.664;2023-07-29T17:21:45;3.10;;;1.70;;
29814;SDS011;16708;50.426;7.664;2023-07-29T17:26:39;2.70;;;1.50;;
29814;SDS011;16708;50.426;7.664;2023-07-29T17:31:34;5.90;;;1.70;;
29814;SDS011;16708;50.426;7.664;2023-07-29T17:36:28;2.70;;;1.50;;
29814;SDS011;16708;50.426;7.664;2023-07-29T17:41:21;2.70;;;1.50;;
29814;SDS011;16708;50.426;7.664;2023-07-29T17:46:15;3.00;;;1.60;;
29814;SDS011;16708;50.426;7.664;2023-07-29T17:51:10;3.20;;;1.60;;
29814;SDS011;16708;50.426;7.664;2023-07-29T17:56:05;2.20;;;1.70;;
29814;SDS011;16708;50.426;7.664;2023-07-29T18:01:00;2.20;;;1.60;;
29814;SDS011;16708;50.426;7.664;2023-07-29T18:05:55;3.90;;;1.70;;
29814;SDS011;16708;50.426;7.664;2023-07-29T18:10:49;2.10;;;1.70;;
29814;SDS011;16708;50.426;7.664;2023-07-29T18:15:43;2.00;;;1.80;;
29814;SDS011;16708;50.426;7.664;2023-07-29T18:20:38;4.50;;;2.50;;
29814;SDS011;16708;50.426;7.664;2023-07-29T18:25:31;4.00;;;2.10;;
29814;SDS011;16708;50.426;7.664;2023-07-29T18:30:25;2.00;;;1.80;;
29814;SDS011;16708;50.426;7.664;2023-07-29T18:35:19;2.30;;;1.60;;
29814;SDS011;16708;50.426;7.664;2023-07-29T18:40:13;3.50;;;1.90;;
29814;SDS011;16708;50.426;7.664;2023-07-29T18:45:07;3.90;;;1.70;;
29814;SDS011;16708;50.426;7.664;2023-07-29T18:50:02;5.00;;;1.80;;
29814;SDS011;16708;50.426;7.664;2023-07-29T18:54:55;3.50;;;1.80;;
29814;SDS011;16708;50.426;7.664;2023-07-29T18:59:50;3.70;;;1.80;;
29814;SDS011;16708;50.426;7.664;2023-07-29T19:04:44;4.00;;;1.70;;
29814;SDS011;16708;50.426;7.664;2023-07-29T19:09:38;8.40;;;2.10;;
29814;SDS011;16708;50.426;7.664;2023-07-29T19:14:33;6.30;;;1.80;;
29814;SDS011;16708;50.426;7.664;2023-07-29T19:19:24;5.00;;;1.80;;
29814;SDS011;16708;50.426;7.664;2023-07-29T19:24:18;2.90;;;1.70;;
29814;SDS011;16708;50.426;7.664;2023-07-29T19:29:12;2.90;;;1.90;;
29814;SDS011;16708;50.426;7.664;2023-07-29T19:34:07;7.50;;;2.00;;
29814;SDS011;16708;50.426;7.664;2023-07-29T19:39:01;4.40;;;2.00;;
29814;SDS011;16708;50.426;7.664;2023-07-29T19:43:55;5.70;;;1.80;;
29814;SDS011;16708;50.426;7.664;2023-07-29T19:48:48;2.90;;;1.70;;
29814;SDS011;16708;50.426;7.664;2023-07-29T19:53:42;6.30;;;1.90;;
29814;SDS011;16708;50.426;7.664;2023-07-29T19:58:35;4.90;;;2.00;;
29814;SDS011;16708;50.426;7.664;2023-07-29T20:03:29;5.40;;;1.90;;
29814;SDS011;16708;50.426;7.664;2023-07-29T20:08:23;3.00;;;1.90;;
29814;SDS011;16708;50.426;7.664;2023-07-29T20:13:17;4.90;;;1.90;;
29814;SDS011;16708;50.426;7.664;2023-07-29T20:18:11;4.60;;;1.70;;
29814;SDS011;16708;50.426;7.664;2023-07-29T20:23:04;3.00;;;1.80;;
29814;SDS011;16708;50.426;7.664;2023-07-29T20:27:59;6.00;;;1.90;;
29814;SDS011;16708;50.426;7.664;2023-07-29T20:32:53;3.70;;;1.90;;
29814;SDS011;16708;50.426;7.664;2023-07-29T20:37:48;2.70;;;1.70;;
29814;SDS011;16708;50.426;7.664;2023-07-29T20:42:42;2.90;;;1.70;;
29814;SDS011;16708;50.426;7.664;2023-07-29T20:47:36;2.90;;;1.60;;
29814;SDS011;16708;50.426;7.664;2023-07-29T20:52:30;2.30;;;1.70;;
29814;SDS011;16708;50.426;7.664;2023-07-29T20:57:25;1.70;;;1.50;;
29814;SDS011;16708;50.426;7.664;2023-07-29T21:02:19;3.30;;;1.50;;
29814;SDS011;16708;50.426;7.664;2023-07-29T21:07:14;2.30;;;1.50;;
29814;SDS011;16708;50.426;7.664;2023-07-29T21:12:08;3.60;;;1.60;;
29814;SDS011;16708;50.426;7.664;2023-07-29T21:17:01;2.50;;;1.60;;
29814;SDS011;16708;50.426;7.664;2023-07-29T21:21:56;3.90;;;1.50;;
29814;SDS011;16708;50.426;7.664;2023-07-29T21:26:50;2.40;;;1.50;;
29814;SDS011;16708;50.426;7.664;2023-07-29T21:31:44;3.40;;;1.40;;
29814;SDS011;16708;50.426;7.664;2023-07-29T21:36:37;2.50;;;1.40;;
29814;SDS011;16708;50.426;7.664;2023-07-29T21:41:31;3.10;;;1.50;;
29814;SDS011;16708;50.426;7.664;2023-07-29T21:46:26;2.90;;;1.40;;
29814;SDS011;16708;50.426;7.664;2023-07-29T21:51:20;2.70;;;1.60;;
29814;SDS011;16708;50.426;7.664;2023-07-29T21:56:14;6.30;;;1.70;;
29814;SDS011;16708;50.426;7.664;2023-07-29T22:01:09;2.70;;;1.50;;
29814;SDS011;16708;50.426;7.664;2023-07-29T22:06:03;4.20;;;1.80;;
29814;SDS011;16708;50.426;7.664;2023-07-29T22:10:58;4.60;;;1.50;;
29814;SDS011;16708;50.426;7.664;2023-07-29T22:15:53;3.50;;;1.50;;
29814;SDS011;16708;50.426;7.664;2023-07-29T22:20:47;4.70;;;1.60;;
29814;SDS011;16708;50.426;7.664;2023-07-29T22:25:41;3.70;;;1.60;;
29814;SDS011;16708;50.426;7.664;2023-07-29T22:30:35;4.40;;;1.40;;
29814;SDS011;16708;50.426;7.664;2023-07-29T22:35:30;2.30;;;1.70;;
29814;SDS011;16708;50.426;7.664;2023-07-29T22:40:24;3.10;;;1.60;;
29814;SDS011;16708;50.426;7.664;2023-07-29T22:45:17;2.70;;;1.50;;
29814;SDS011;16708;50.426;7.664;2023-07-29T22:50:12;2.40;;;1.70;;
29814;SDS011;16708;50.426;7.664;2023-07-29T22:55:06;3.90;;;1.80;;
29814;SDS011;16708;50.426;7.664;2023-07-29T23:00:01;3.40;;;1.70;;
29814;SDS011;16708;50.426;7.664;2023-07-29T23:04:55;3.80;;;1.90;;
29814;SDS011;16708;50.426;7.664;2023-07-29T23:09:50;2.50;;;1.80;;
29814;SDS011;16708;50.426;7.664;2023-07-29T23:14:44;6.20;;;2.20;;
29814;SDS011;16708;50.426;7.664;2023-07-29T23:19:39;3.60;;;2.00;;
29814;SDS011;16708;50.426;7.664;2023-07-29T23:24:33;3.60;;;2.20;;
29814;SDS011;16708;50.426;7.664;2023-07-29T23:29:27;4.30;;;2.20;;
29814;SDS011;16708;50.426;7.664;2023-07-29T23:34:20;4.30;;;2.10;;
29814;SDS011;16708;50.426;7.664;2023-07-29T23:39:15;4.20;;;2.10;;
29814;SDS011;16708;50.426;7.664;2023-07-29T23:44:09;3.90;;;2.10;;
29814;SDS011;16708;50.426;7.664;2023-07-29T23:49:03;3.50;;;2.00;;
29814;SDS011;16708;50.426;7.664;2023-07-29T23:53:58;4.40;;;2.50;;
29814;SDS011;16708;50.426;7.664;2023-07-29T23:58:53;5.20;;;2.40;;
